Weather at Tyneside Field

Public forecast

Using degrees Celsius for public forecast. Weather courtesy of forecast.io.

Closest aviation weather report (METAR) to Tyneside Field

Closest report is John C. Munro Hamilton International Airport, 5.0 nm (9.2 km) NNW.

2024/05/20 18:00 (retrieved 24 minutes ago)

CYHM 201800Z 19010KT 15SM FEW065 BKN250 28/14 A2996 RMK SC1CI6 SC TR SLP144 DENSITY ALT 2400FT

Closest aviation forecast (TAF) to Tyneside Field

Closest forecast is John C. Munro Hamilton International Airport, 5.0 nm (9.2 km) NNW.

2024/05/20 18:48 (retrieved 0 seconds ago)

TAF TAF CYHM 201746Z 2018/2118 20007KT P6SM BKN070 FM202200 19010KT P6SM SCT050 BECMG 2101/2103 16005KT FM210600 18007KT P6SM BKN100 FM211000 21012KT P6SM BKN070 RMK NXT FCST BY 210000Z